sensor_id;sensor_type;location;lat;lon;timestamp;P1;durP1;ratioP1;P2;durP2;ratioP2
58898;SDS011;44680;48.342;7.856;2022-10-16T00:01:15;9.07;;;2.67;;
58898;SDS011;44680;48.342;7.856;2022-10-16T00:03:41;4.88;;;2.45;;
58898;SDS011;44680;48.342;7.856;2022-10-16T00:06:07;8.15;;;2.50;;
58898;SDS011;44680;48.342;7.856;2022-10-16T00:08:34;7.03;;;2.72;;
58898;SDS011;44680;48.342;7.856;2022-10-16T00:11:01;8.73;;;2.53;;
58898;SDS011;44680;48.342;7.856;2022-10-16T00:13:37;8.25;;;2.80;;
58898;SDS011;44680;48.342;7.856;2022-10-16T00:16:04;4.05;;;2.53;;
58898;SDS011;44680;48.342;7.856;2022-10-16T00:18:30;6.47;;;2.22;;
58898;SDS011;44680;48.342;7.856;2022-10-16T00:20:55;9.07;;;2.60;;
58898;SDS011;44680;48.342;7.856;2022-10-16T00:23:21;13.82;;;3.00;;
58898;SDS011;44680;48.342;7.856;2022-10-16T00:26:00;4.15;;;2.63;;
58898;SDS011;44680;48.342;7.856;2022-10-16T00:28:27;6.00;;;2.60;;
58898;SDS011;44680;48.342;7.856;2022-10-16T00:30:52;9.43;;;2.60;;
58898;SDS011;44680;48.342;7.856;2022-10-16T00:33:18;6.68;;;2.53;;
58898;SDS011;44680;48.342;7.856;2022-10-16T00:35:43;5.45;;;2.65;;
58898;SDS011;44680;48.342;7.856;2022-10-16T00:38:09;4.22;;;2.70;;
58898;SDS011;44680;48.342;7.856;2022-10-16T00:40:34;4.47;;;2.22;;
58898;SDS011;44680;48.342;7.856;2022-10-16T00:43:00;12.73;;;2.42;;
58898;SDS011;44680;48.342;7.856;2022-10-16T00:45:25;5.55;;;2.45;;
58898;SDS011;44680;48.342;7.856;2022-10-16T00:47:50;4.55;;;2.45;;
58898;SDS011;44680;48.342;7.856;2022-10-16T00:50:27;8.02;;;2.75;;
58898;SDS011;44680;48.342;7.856;2022-10-16T00:52:54;5.10;;;2.55;;
58898;SDS011;44680;48.342;7.856;2022-10-16T00:55:20;4.05;;;2.40;;
58898;SDS011;44680;48.342;7.856;2022-10-16T00:57:46;12.43;;;2.40;;
58898;SDS011;44680;48.342;7.856;2022-10-16T01:00:13;8.10;;;2.17;;
58898;SDS011;44680;48.342;7.856;2022-10-16T01:02:41;8.30;;;2.45;;
58898;SDS011;44680;48.342;7.856;2022-10-16T01:05:06;8.57;;;2.30;;
58898;SDS011;44680;48.342;7.856;2022-10-16T01:07:45;6.22;;;2.53;;
58898;SDS011;44680;48.342;7.856;2022-10-16T01:13:10;8.85;;;2.70;;
58898;SDS011;44680;48.342;7.856;2022-10-16T01:15:37;16.08;;;2.85;;
58898;SDS011;44680;48.342;7.856;2022-10-16T01:20:49;9.18;;;2.80;;
58898;SDS011;44680;48.342;7.856;2022-10-16T01:30:04;6.93;;;2.65;;
58898;SDS011;44680;48.342;7.856;2022-10-16T01:32:53;5.80;;;2.20;;
58898;SDS011;44680;48.342;7.856;2022-10-16T01:35:22;10.73;;;2.58;;
58898;SDS011;44680;48.342;7.856;2022-10-16T01:40:34;4.03;;;2.53;;
58898;SDS011;44680;48.342;7.856;2022-10-16T01:43:05;5.85;;;2.55;;
58898;SDS011;44680;48.342;7.856;2022-10-16T01:45:33;6.32;;;2.10;;
58898;SDS011;44680;48.342;7.856;2022-10-16T01:48:00;5.97;;;2.40;;
58898;SDS011;44680;48.342;7.856;2022-10-16T01:50:28;7.88;;;2.53;;
58898;SDS011;44680;48.342;7.856;2022-10-16T01:52:54;4.82;;;2.17;;
58898;SDS011;44680;48.342;7.856;2022-10-16T01:55:25;6.85;;;2.35;;
58898;SDS011;44680;48.342;7.856;2022-10-16T01:57:54;11.35;;;2.17;;
58898;SDS011;44680;48.342;7.856;2022-10-16T02:00:20;4.90;;;2.20;;
58898;SDS011;44680;48.342;7.856;2022-10-16T02:02:48;4.40;;;2.20;;
58898;SDS011;44680;48.342;7.856;2022-10-16T02:05:20;7.50;;;2.60;;
58898;SDS011;44680;48.342;7.856;2022-10-16T02:07:48;5.60;;;2.30;;
58898;SDS011;44680;48.342;7.856;2022-10-16T02:10:14;7.43;;;2.65;;
58898;SDS011;44680;48.342;7.856;2022-10-16T02:12:40;4.40;;;2.30;;
58898;SDS011;44680;48.342;7.856;2022-10-16T02:15:09;7.30;;;2.05;;
58898;SDS011;44680;48.342;7.856;2022-10-16T02:17:35;6.72;;;2.92;;
58898;SDS011;44680;48.342;7.856;2022-10-16T02:20:00;4.20;;;2.08;;
58898;SDS011;44680;48.342;7.856;2022-10-16T02:22:33;6.32;;;2.25;;
58898;SDS011;44680;48.342;7.856;2022-10-16T02:27:50;7.50;;;2.45;;
58898;SDS011;44680;48.342;7.856;2022-10-16T02:30:21;9.38;;;2.53;;
58898;SDS011;44680;48.342;7.856;2022-10-16T02:32:50;6.50;;;2.55;;
58898;SDS011;44680;48.342;7.856;2022-10-16T02:35:18;5.50;;;2.40;;
58898;SDS011;44680;48.342;7.856;2022-10-16T02:37:44;5.93;;;2.50;;
58898;SDS011;44680;48.342;7.856;2022-10-16T02:40:10;5.93;;;2.45;;
58898;SDS011;44680;48.342;7.856;2022-10-16T02:42:37;4.25;;;2.00;;
58898;SDS011;44680;48.342;7.856;2022-10-16T02:45:07;5.45;;;2.35;;
58898;SDS011;44680;48.342;7.856;2022-10-16T02:47:33;7.90;;;2.47;;
58898;SDS011;44680;48.342;7.856;2022-10-16T02:49:59;5.35;;;2.40;;
58898;SDS011;44680;48.342;7.856;2022-10-16T02:52:24;5.57;;;2.80;;
58898;SDS011;44680;48.342;7.856;2022-10-16T02:54:49;3.95;;;2.65;;
58898;SDS011;44680;48.342;7.856;2022-10-16T02:57:15;7.88;;;3.20;;
58898;SDS011;44680;48.342;7.856;2022-10-16T02:59:40;8.80;;;2.78;;
58898;SDS011;44680;48.342;7.856;2022-10-16T03:02:06;6.85;;;2.30;;
58898;SDS011;44680;48.342;7.856;2022-10-16T03:04:31;6.70;;;2.42;;
58898;SDS011;44680;48.342;7.856;2022-10-16T03:06:56;13.10;;;2.40;;
58898;SDS011;44680;48.342;7.856;2022-10-16T03:09:22;5.20;;;2.30;;
58898;SDS011;44680;48.342;7.856;2022-10-16T03:11:47;5.85;;;2.20;;
58898;SDS011;44680;48.342;7.856;2022-10-16T03:14:12;3.92;;;2.15;;
58898;SDS011;44680;48.342;7.856;2022-10-16T03:16:38;6.40;;;2.50;;
58898;SDS011;44680;48.342;7.856;2022-10-16T03:19:03;6.88;;;2.25;;
58898;SDS011;44680;48.342;7.856;2022-10-16T03:21:28;7.15;;;2.35;;
58898;SDS011;44680;48.342;7.856;2022-10-16T03:23:54;5.18;;;2.20;;
58898;SDS011;44680;48.342;7.856;2022-10-16T03:26:19;14.02;;;2.63;;
58898;SDS011;44680;48.342;7.856;2022-10-16T03:28:45;7.78;;;2.50;;
58898;SDS011;44680;48.342;7.856;2022-10-16T03:31:10;9.55;;;2.60;;
58898;SDS011;44680;48.342;7.856;2022-10-16T03:33:35;3.83;;;2.20;;
58898;SDS011;44680;48.342;7.856;2022-10-16T03:36:01;5.13;;;2.65;;
58898;SDS011;44680;48.342;7.856;2022-10-16T03:38:26;2.38;;;2.17;;
58898;SDS011;44680;48.342;7.856;2022-10-16T03:40:51;6.93;;;2.47;;
58898;SDS011;44680;48.342;7.856;2022-10-16T03:43:17;4.38;;;2.22;;
58898;SDS011;44680;48.342;7.856;2022-10-16T03:45:42;7.15;;;2.50;;
58898;SDS011;44680;48.342;7.856;2022-10-16T03:48:07;2.83;;;2.03;;
58898;SDS011;44680;48.342;7.856;2022-10-16T03:50:33;6.68;;;2.45;;
58898;SDS011;44680;48.342;7.856;2022-10-16T03:52:58;6.18;;;2.55;;
58898;SDS011;44680;48.342;7.856;2022-10-16T03:55:23;3.42;;;2.15;;
58898;SDS011;44680;48.342;7.856;2022-10-16T03:57:49;6.00;;;2.47;;
58898;SDS011;44680;48.342;7.856;2022-10-16T04:00:14;8.10;;;2.85;;
58898;SDS011;44680;48.342;7.856;2022-10-16T04:02:39;14.10;;;2.50;;
58898;SDS011;44680;48.342;7.856;2022-10-16T04:05:05;4.88;;;2.30;;
58898;SDS011;44680;48.342;7.856;2022-10-16T04:07:30;9.90;;;2.55;;
58898;SDS011;44680;48.342;7.856;2022-10-16T04:09:56;9.73;;;2.85;;
58898;SDS011;44680;48.342;7.856;2022-10-16T04:12:23;6.68;;;2.53;;
58898;SDS011;44680;48.342;7.856;2022-10-16T04:14:49;9.88;;;2.63;;
58898;SDS011;44680;48.342;7.856;2022-10-16T04:17:14;6.72;;;2.60;;
58898;SDS011;44680;48.342;7.856;2022-10-16T04:19:39;8.10;;;2.28;;
58898;SDS011;44680;48.342;7.856;2022-10-16T04:22:05;5.97;;;2.25;;
58898;SDS011;44680;48.342;7.856;2022-10-16T04:24:30;3.75;;;2.20;;
58898;SDS011;44680;48.342;7.856;2022-10-16T04:26:55;3.53;;;2.30;;
58898;SDS011;44680;48.342;7.856;2022-10-16T04:29:20;5.80;;;2.30;;
58898;SDS011;44680;48.342;7.856;2022-10-16T04:31:46;7.22;;;2.63;;
58898;SDS011;44680;48.342;7.856;2022-10-16T04:34:11;6.68;;;2.65;;
58898;SDS011;44680;48.342;7.856;2022-10-16T04:36:36;7.97;;;2.90;;
58898;SDS011;44680;48.342;7.856;2022-10-16T04:39:02;8.85;;;2.92;;
58898;SDS011;44680;48.342;7.856;2022-10-16T04:41:27;8.77;;;2.60;;
58898;SDS011;44680;48.342;7.856;2022-10-16T04:43:52;6.45;;;2.50;;
58898;SDS011;44680;48.342;7.856;2022-10-16T04:46:18;6.00;;;2.63;;
58898;SDS011;44680;48.342;7.856;2022-10-16T04:48:43;6.70;;;2.22;;
58898;SDS011;44680;48.342;7.856;2022-10-16T04:51:08;9.68;;;2.35;;
58898;SDS011;44680;48.342;7.856;2022-10-16T04:53:34;9.65;;;2.22;;
58898;SDS011;44680;48.342;7.856;2022-10-16T04:55:59;4.38;;;2.50;;
58898;SDS011;44680;48.342;7.856;2022-10-16T04:58:24;7.82;;;2.20;;
58898;SDS011;44680;48.342;7.856;2022-10-16T05:00:50;5.35;;;2.20;;
58898;SDS011;44680;48.342;7.856;2022-10-16T05:03:15;8.52;;;2.35;;
58898;SDS011;44680;48.342;7.856;2022-10-16T05:05:44;7.03;;;2.60;;
58898;SDS011;44680;48.342;7.856;2022-10-16T05:08:10;7.60;;;2.20;;
58898;SDS011;44680;48.342;7.856;2022-10-16T05:10:36;6.72;;;2.30;;
58898;SDS011;44680;48.342;7.856;2022-10-16T05:13:01;4.90;;;2.30;;
58898;SDS011;44680;48.342;7.856;2022-10-16T05:15:26;5.68;;;2.40;;
58898;SDS011;44680;48.342;7.856;2022-10-16T05:17:53;7.43;;;2.45;;
58898;SDS011;44680;48.342;7.856;2022-10-16T05:20:18;9.13;;;2.70;;
58898;SDS011;44680;48.342;7.856;2022-10-16T05:22:44;6.53;;;2.50;;
58898;SDS011;44680;48.342;7.856;2022-10-16T05:25:09;2.97;;;2.35;;
58898;SDS011;44680;48.342;7.856;2022-10-16T05:27:35;17.05;;;2.50;;
58898;SDS011;44680;48.342;7.856;2022-10-16T05:30:00;10.88;;;2.75;;
58898;SDS011;44680;48.342;7.856;2022-10-16T05:32:25;3.58;;;2.42;;
58898;SDS011;44680;48.342;7.856;2022-10-16T05:34:51;10.18;;;2.50;;
58898;SDS011;44680;48.342;7.856;2022-10-16T05:37:16;3.95;;;2.50;;
58898;SDS011;44680;48.342;7.856;2022-10-16T05:39:41;7.82;;;3.20;;
58898;SDS011;44680;48.342;7.856;2022-10-16T05:42:07;2.97;;;2.50;;
58898;SDS011;44680;48.342;7.856;2022-10-16T05:44:32;8.68;;;2.55;;
58898;SDS011;44680;48.342;7.856;2022-10-16T05:46:57;11.60;;;2.88;;
58898;SDS011;44680;48.342;7.856;2022-10-16T05:49:23;3.85;;;2.30;;
58898;SDS011;44680;48.342;7.856;2022-10-16T05:51:48;8.65;;;2.90;;
58898;SDS011;44680;48.342;7.856;2022-10-16T05:54:14;6.53;;;2.90;;
58898;SDS011;44680;48.342;7.856;2022-10-16T05:56:39;5.60;;;3.13;;
58898;SDS011;44680;48.342;7.856;2022-10-16T05:59:05;8.90;;;3.28;;
58898;SDS011;44680;48.342;7.856;2022-10-16T06:01:30;8.40;;;3.00;;
58898;SDS011;44680;48.342;7.856;2022-10-16T06:03:56;6.50;;;2.60;;
58898;SDS011;44680;48.342;7.856;2022-10-16T06:06:23;8.55;;;3.30;;
58898;SDS011;44680;48.342;7.856;2022-10-16T06:08:50;14.27;;;3.53;;
58898;SDS011;44680;48.342;7.856;2022-10-16T06:11:17;11.63;;;2.80;;
58898;SDS011;44680;48.342;7.856;2022-10-16T06:13:50;5.63;;;2.70;;
58898;SDS011;44680;48.342;7.856;2022-10-16T06:16:19;8.13;;;2.83;;
58898;SDS011;44680;48.342;7.856;2022-10-16T06:18:44;6.57;;;2.78;;
58898;SDS011;44680;48.342;7.856;2022-10-16T06:21:13;8.60;;;3.17;;
58898;SDS011;44680;48.342;7.856;2022-10-16T06:23:41;5.30;;;2.55;;
58898;SDS011;44680;48.342;7.856;2022-10-16T06:26:07;16.35;;;2.70;;
58898;SDS011;44680;48.342;7.856;2022-10-16T06:28:34;5.85;;;2.75;;
58898;SDS011;44680;48.342;7.856;2022-10-16T06:31:00;9.05;;;2.60;;
58898;SDS011;44680;48.342;7.856;2022-10-16T06:33:25;6.47;;;2.63;;
58898;SDS011;44680;48.342;7.856;2022-10-16T06:35:51;8.70;;;2.78;;
58898;SDS011;44680;48.342;7.856;2022-10-16T06:38:16;7.40;;;2.45;;
58898;SDS011;44680;48.342;7.856;2022-10-16T06:40:41;6.03;;;2.80;;
58898;SDS011;44680;48.342;7.856;2022-10-16T06:43:07;6.57;;;3.00;;
58898;SDS011;44680;48.342;7.856;2022-10-16T06:45:32;11.10;;;2.92;;
58898;SDS011;44680;48.342;7.856;2022-10-16T06:47:57;9.90;;;2.38;;
58898;SDS011;44680;48.342;7.856;2022-10-16T06:50:23;6.30;;;2.90;;
58898;SDS011;44680;48.342;7.856;2022-10-16T06:52:48;10.75;;;3.00;;
58898;SDS011;44680;48.342;7.856;2022-10-16T06:55:14;9.05;;;3.38;;
58898;SDS011;44680;48.342;7.856;2022-10-16T06:57:40;7.80;;;3.30;;
58898;SDS011;44680;48.342;7.856;2022-10-16T07:00:05;7.28;;;3.03;;
58898;SDS011;44680;48.342;7.856;2022-10-16T07:02:31;4.53;;;3.10;;
58898;SDS011;44680;48.342;7.856;2022-10-16T07:04:56;5.60;;;3.35;;
58898;SDS011;44680;48.342;7.856;2022-10-16T07:07:21;9.45;;;4.10;;
58898;SDS011;44680;48.342;7.856;2022-10-16T07:09:49;11.73;;;3.58;;
58898;SDS011;44680;48.342;7.856;2022-10-16T07:12:15;8.07;;;3.08;;
58898;SDS011;44680;48.342;7.856;2022-10-16T07:14:40;10.73;;;2.85;;
58898;SDS011;44680;48.342;7.856;2022-10-16T07:17:05;7.72;;;3.00;;
58898;SDS011;44680;48.342;7.856;2022-10-16T07:19:30;5.10;;;2.83;;
58898;SDS011;44680;48.342;7.856;2022-10-16T07:21:56;4.57;;;2.70;;
58898;SDS011;44680;48.342;7.856;2022-10-16T07:24:22;9.75;;;3.30;;
58898;SDS011;44680;48.342;7.856;2022-10-16T07:26:47;10.05;;;3.00;;
58898;SDS011;44680;48.342;7.856;2022-10-16T07:29:13;7.97;;;2.72;;
58898;SDS011;44680;48.342;7.856;2022-10-16T07:31:40;2.72;;;2.53;;
58898;SDS011;44680;48.342;7.856;2022-10-16T07:34:05;6.60;;;2.60;;
58898;SDS011;44680;48.342;7.856;2022-10-16T07:36:31;3.70;;;2.55;;
58898;SDS011;44680;48.342;7.856;2022-10-16T07:38:56;8.18;;;2.80;;
58898;SDS011;44680;48.342;7.856;2022-10-16T07:41:21;7.80;;;2.58;;
58898;SDS011;44680;48.342;7.856;2022-10-16T07:43:51;7.03;;;2.78;;
58898;SDS011;44680;48.342;7.856;2022-10-16T07:46:18;7.30;;;3.10;;
58898;SDS011;44680;48.342;7.856;2022-10-16T07:48:44;8.77;;;3.38;;
58898;SDS011;44680;48.342;7.856;2022-10-16T07:51:12;3.92;;;2.97;;
58898;SDS011;44680;48.342;7.856;2022-10-16T07:53:38;8.10;;;3.30;;
58898;SDS011;44680;48.342;7.856;2022-10-16T07:56:04;9.43;;;2.80;;
58898;SDS011;44680;48.342;7.856;2022-10-16T07:58:31;7.78;;;2.67;;
58898;SDS011;44680;48.342;7.856;2022-10-16T08:00:57;5.45;;;2.97;;
58898;SDS011;44680;48.342;7.856;2022-10-16T08:03:23;5.45;;;2.85;;
58898;SDS011;44680;48.342;7.856;2022-10-16T08:05:49;8.30;;;3.42;;
58898;SDS011;44680;48.342;7.856;2022-10-16T08:08:14;9.15;;;2.90;;
58898;SDS011;44680;48.342;7.856;2022-10-16T08:10:41;12.10;;;2.60;;
58898;SDS011;44680;48.342;7.856;2022-10-16T08:13:06;10.60;;;2.75;;
58898;SDS011;44680;48.342;7.856;2022-10-16T08:15:32;8.55;;;3.00;;
58898;SDS011;44680;48.342;7.856;2022-10-16T08:17:58;3.08;;;2.60;;
58898;SDS011;44680;48.342;7.856;2022-10-16T08:20:24;9.35;;;2.80;;
58898;SDS011;44680;48.342;7.856;2022-10-16T08:22:51;7.20;;;2.70;;
58898;SDS011;44680;48.342;7.856;2022-10-16T08:25:16;11.15;;;3.08;;
58898;SDS011;44680;48.342;7.856;2022-10-16T08:27:41;5.75;;;2.67;;
58898;SDS011;44680;48.342;7.856;2022-10-16T08:30:07;7.70;;;3.03;;
58898;SDS011;44680;48.342;7.856;2022-10-16T08:32:33;4.05;;;2.97;;
58898;SDS011;44680;48.342;7.856;2022-10-16T08:34:58;7.55;;;2.70;;
58898;SDS011;44680;48.342;7.856;2022-10-16T08:37:23;10.30;;;2.75;;
58898;SDS011;44680;48.342;7.856;2022-10-16T08:39:49;4.55;;;2.60;;
58898;SDS011;44680;48.342;7.856;2022-10-16T08:42:18;11.15;;;2.72;;
58898;SDS011;44680;48.342;7.856;2022-10-16T08:45:08;6.53;;;2.80;;
58898;SDS011;44680;48.342;7.856;2022-10-16T08:47:53;7.45;;;2.63;;
58898;SDS011;44680;48.342;7.856;2022-10-16T08:50:26;8.32;;;3.10;;
58898;SDS011;44680;48.342;7.856;2022-10-16T08:52:54;8.10;;;2.55;;
58898;SDS011;44680;48.342;7.856;2022-10-16T08:58:13;6.63;;;2.65;;
58898;SDS011;44680;48.342;7.856;2022-10-16T09:00:40;4.72;;;2.63;;
58898;SDS011;44680;48.342;7.856;2022-10-16T09:03:27;6.68;;;2.78;;
58898;SDS011;44680;48.342;7.856;2022-10-16T09:08:41;5.15;;;2.85;;
58898;SDS011;44680;48.342;7.856;2022-10-16T09:11:11;8.75;;;2.83;;
58898;SDS011;44680;48.342;7.856;2022-10-16T09:16:36;5.97;;;2.38;;
58898;SDS011;44680;48.342;7.856;2022-10-16T09:19:20;5.03;;;2.58;;
58898;SDS011;44680;48.342;7.856;2022-10-16T09:21:49;7.15;;;2.65;;
58898;SDS011;44680;48.342;7.856;2022-10-16T09:24:25;3.28;;;2.50;;
58898;SDS011;44680;48.342;7.856;2022-10-16T09:26:50;6.30;;;2.58;;
58898;SDS011;44680;48.342;7.856;2022-10-16T09:29:17;9.23;;;3.08;;
58898;SDS011;44680;48.342;7.856;2022-10-16T09:31:45;5.85;;;2.95;;
58898;SDS011;44680;48.342;7.856;2022-10-16T09:34:17;6.07;;;2.95;;
58898;SDS011;44680;48.342;7.856;2022-10-16T09:36:49;6.47;;;2.60;;
58898;SDS011;44680;48.342;7.856;2022-10-16T09:39:16;8.30;;;2.70;;
58898;SDS011;44680;48.342;7.856;2022-10-16T09:41:42;7.38;;;2.95;;
58898;SDS011;44680;48.342;7.856;2022-10-16T09:44:17;11.27;;;3.00;;
58898;SDS011;44680;48.342;7.856;2022-10-16T09:46:46;7.65;;;2.92;;
58898;SDS011;44680;48.342;7.856;2022-10-16T09:49:21;6.93;;;2.85;;
58898;SDS011;44680;48.342;7.856;2022-10-16T09:51:49;5.15;;;2.70;;
58898;SDS011;44680;48.342;7.856;2022-10-16T09:54:16;4.10;;;2.90;;
58898;SDS011;44680;48.342;7.856;2022-10-16T09:56:45;6.07;;;3.20;;
58898;SDS011;44680;48.342;7.856;2022-10-16T10:01:41;3.47;;;2.83;;
58898;SDS011;44680;48.342;7.856;2022-10-16T10:04:09;7.43;;;3.08;;
58898;SDS011;44680;48.342;7.856;2022-10-16T10:06:45;6.03;;;2.90;;
58898;SDS011;44680;48.342;7.856;2022-10-16T10:14:17;8.23;;;2.92;;
58898;SDS011;44680;48.342;7.856;2022-10-16T10:16:45;6.80;;;2.80;;
58898;SDS011;44680;48.342;7.856;2022-10-16T10:19:18;7.25;;;2.90;;
58898;SDS011;44680;48.342;7.856;2022-10-16T10:21:45;3.90;;;2.78;;
58898;SDS011;44680;48.342;7.856;2022-10-16T10:24:11;4.75;;;2.65;;
58898;SDS011;44680;48.342;7.856;2022-10-16T10:26:37;2.65;;;2.45;;
58898;SDS011;44680;48.342;7.856;2022-10-16T10:32:11;3.67;;;2.58;;
58898;SDS011;44680;48.342;7.856;2022-10-16T10:34:42;5.90;;;2.90;;
58898;SDS011;44680;48.342;7.856;2022-10-16T10:40:12;8.32;;;3.28;;
58898;SDS011;44680;48.342;7.856;2022-10-16T10:43:00;6.13;;;2.95;;
58898;SDS011;44680;48.342;7.856;2022-10-16T10:50:41;10.55;;;3.22;;
58898;SDS011;44680;48.342;7.856;2022-10-16T11:01:14;3.35;;;2.97;;
58898;SDS011;44680;48.342;7.856;2022-10-16T11:06:33;7.82;;;2.90;;
58898;SDS011;44680;48.342;7.856;2022-10-16T11:09:24;6.47;;;2.63;;
58898;SDS011;44680;48.342;7.856;2022-10-16T11:11:56;10.88;;;3.80;;
58898;SDS011;44680;48.342;7.856;2022-10-16T11:14:26;10.25;;;3.30;;
58898;SDS011;44680;48.342;7.856;2022-10-16T11:16:56;9.73;;;4.13;;
58898;SDS011;44680;48.342;7.856;2022-10-16T11:24:59;7.55;;;2.80;;
58898;SDS011;44680;48.342;7.856;2022-10-16T11:27:36;3.53;;;2.65;;
58898;SDS011;44680;48.342;7.856;2022-10-16T11:30:12;4.07;;;2.45;;
58898;SDS011;44680;48.342;7.856;2022-10-16T11:35:37;5.28;;;2.60;;
58898;SDS011;44680;48.342;7.856;2022-10-16T11:38:32;7.75;;;2.30;;
58898;SDS011;44680;48.342;7.856;2022-10-16T11:41:26;2.45;;;2.22;;
58898;SDS011;44680;48.342;7.856;2022-10-16T11:46:38;8.88;;;2.53;;
58898;SDS011;44680;48.342;7.856;2022-10-16T11:49:13;1.92;;;1.83;;
58898;SDS011;44680;48.342;7.856;2022-10-16T11:51:42;2.88;;;2.58;;
58898;SDS011;44680;48.342;7.856;2022-10-16T11:57:13;6.80;;;2.60;;
58898;SDS011;44680;48.342;7.856;2022-10-16T12:02:38;6.28;;;2.58;;
58898;SDS011;44680;48.342;7.856;2022-10-16T12:08:11;3.92;;;2.50;;
58898;SDS011;44680;48.342;7.856;2022-10-16T12:10:36;7.28;;;3.40;;
58898;SDS011;44680;48.342;7.856;2022-10-16T12:13:03;6.70;;;1.85;;
58898;SDS011;44680;48.342;7.856;2022-10-16T12:15:33;7.63;;;2.22;;
58898;SDS011;44680;48.342;7.856;2022-10-16T12:17:59;2.95;;;1.77;;
58898;SDS011;44680;48.342;7.856;2022-10-16T12:20:31;2.75;;;2.20;;
58898;SDS011;44680;48.342;7.856;2022-10-16T12:23:02;2.50;;;2.30;;
58898;SDS011;44680;48.342;7.856;2022-10-16T12:28:03;3.97;;;2.42;;
58898;SDS011;44680;48.342;7.856;2022-10-16T12:30:31;9.20;;;2.75;;
58898;SDS011;44680;48.342;7.856;2022-10-16T12:33:05;4.82;;;2.90;;
58898;SDS011;44680;48.342;7.856;2022-10-16T12:35:43;2.85;;;2.28;;
58898;SDS011;44680;48.342;7.856;2022-10-16T12:38:17;3.55;;;2.42;;
58898;SDS011;44680;48.342;7.856;2022-10-16T12:40:44;5.05;;;1.98;;
58898;SDS011;44680;48.342;7.856;2022-10-16T12:43:58;3.55;;;2.20;;
58898;SDS011;44680;48.342;7.856;2022-10-16T12:48:30;3.05;;;2.28;;
58898;SDS011;44680;48.342;7.856;2022-10-16T12:50:56;5.05;;;2.55;;
58898;SDS011;44680;48.342;7.856;2022-10-16T12:53:23;3.13;;;2.78;;
58898;SDS011;44680;48.342;7.856;2022-10-16T12:56:03;2.97;;;2.47;;
58898;SDS011;44680;48.342;7.856;2022-10-16T12:58:41;2.75;;;2.47;;
58898;SDS011;44680;48.342;7.856;2022-10-16T13:04:23;5.03;;;2.63;;
58898;SDS011;44680;48.342;7.856;2022-10-16T13:12:55;5.30;;;3.13;;
58898;SDS011;44680;48.342;7.856;2022-10-16T13:15:47;5.22;;;3.10;;
58898;SDS011;44680;48.342;7.856;2022-10-16T13:29:41;5.20;;;2.72;;
58898;SDS011;44680;48.342;7.856;2022-10-16T13:32:07;5.50;;;3.20;;
58898;SDS011;44680;48.342;7.856;2022-10-16T13:34:41;5.57;;;3.00;;
58898;SDS011;44680;48.342;7.856;2022-10-16T13:37:16;5.45;;;3.05;;
58898;SDS011;44680;48.342;7.856;2022-10-16T13:39:43;3.08;;;2.78;;
58898;SDS011;44680;48.342;7.856;2022-10-16T13:44:55;9.57;;;2.50;;
58898;SDS011;44680;48.342;7.856;2022-10-16T13:47:22;3.90;;;2.38;;
58898;SDS011;44680;48.342;7.856;2022-10-16T13:49:59;7.28;;;2.90;;
58898;SDS011;44680;48.342;7.856;2022-10-16T13:52:29;3.47;;;2.53;;
58898;SDS011;44680;48.342;7.856;2022-10-16T13:54:54;4.93;;;2.47;;
58898;SDS011;44680;48.342;7.856;2022-10-16T13:57:22;6.28;;;2.50;;
58898;SDS011;44680;48.342;7.856;2022-10-16T13:59:48;4.45;;;2.78;;
58898;SDS011;44680;48.342;7.856;2022-10-16T14:02:22;7.55;;;2.67;;
58898;SDS011;44680;48.342;7.856;2022-10-16T14:04:51;10.77;;;4.38;;
58898;SDS011;44680;48.342;7.856;2022-10-16T14:07:23;12.25;;;4.25;;
58898;SDS011;44680;48.342;7.856;2022-10-16T14:09:50;3.50;;;3.20;;
58898;SDS011;44680;48.342;7.856;2022-10-16T14:12:16;9.20;;;3.10;;
58898;SDS011;44680;48.342;7.856;2022-10-16T14:14:43;4.18;;;2.88;;
58898;SDS011;44680;48.342;7.856;2022-10-16T14:17:14;3.17;;;2.88;;
58898;SDS011;44680;48.342;7.856;2022-10-16T14:19:47;5.78;;;2.70;;
58898;SDS011;44680;48.342;7.856;2022-10-16T14:27:31;3.22;;;2.60;;
58898;SDS011;44680;48.342;7.856;2022-10-16T14:30:18;3.83;;;2.22;;
58898;SDS011;44680;48.342;7.856;2022-10-16T14:32:55;5.70;;;2.50;;
58898;SDS011;44680;48.342;7.856;2022-10-16T14:35:23;3.58;;;2.38;;
58898;SDS011;44680;48.342;7.856;2022-10-16T14:37:53;2.97;;;2.50;;
58898;SDS011;44680;48.342;7.856;2022-10-16T14:40:20;4.57;;;2.45;;
58898;SDS011;44680;48.342;7.856;2022-10-16T14:42:48;6.95;;;3.15;;
58898;SDS011;44680;48.342;7.856;2022-10-16T14:45:15;6.00;;;3.53;;
58898;SDS011;44680;48.342;7.856;2022-10-16T14:47:51;5.72;;;3.00;;
58898;SDS011;44680;48.342;7.856;2022-10-16T14:50:18;5.38;;;2.92;;
58898;SDS011;44680;48.342;7.856;2022-10-16T14:52:44;6.82;;;3.00;;
58898;SDS011;44680;48.342;7.856;2022-10-16T14:55:10;5.15;;;3.33;;
58898;SDS011;44680;48.342;7.856;2022-10-16T14:57:35;6.55;;;3.50;;
58898;SDS011;44680;48.342;7.856;2022-10-16T15:00:03;4.78;;;3.05;;
58898;SDS011;44680;48.342;7.856;2022-10-16T15:02:32;6.38;;;2.88;;
58898;SDS011;44680;48.342;7.856;2022-10-16T15:05:07;7.25;;;2.70;;
58898;SDS011;44680;48.342;7.856;2022-10-16T15:07:44;6.50;;;2.80;;
58898;SDS011;44680;48.342;7.856;2022-10-16T15:10:10;4.47;;;2.33;;
58898;SDS011;44680;48.342;7.856;2022-10-16T15:12:36;4.90;;;2.90;;
58898;SDS011;44680;48.342;7.856;2022-10-16T15:15:01;2.88;;;2.30;;
58898;SDS011;44680;48.342;7.856;2022-10-16T15:17:27;5.05;;;2.78;;
58898;SDS011;44680;48.342;7.856;2022-10-16T15:19:52;8.00;;;2.90;;
58898;SDS011;44680;48.342;7.856;2022-10-16T15:22:17;14.23;;;3.30;;
58898;SDS011;44680;48.342;7.856;2022-10-16T15:24:43;4.30;;;2.90;;
58898;SDS011;44680;48.342;7.856;2022-10-16T15:27:08;7.05;;;3.17;;
58898;SDS011;44680;48.342;7.856;2022-10-16T15:29:33;7.32;;;2.90;;
58898;SDS011;44680;48.342;7.856;2022-10-16T15:31:59;10.73;;;3.78;;
58898;SDS011;44680;48.342;7.856;2022-10-16T15:34:24;11.15;;;3.45;;
58898;SDS011;44680;48.342;7.856;2022-10-16T15:36:49;7.28;;;3.22;;
58898;SDS011;44680;48.342;7.856;2022-10-16T15:39:16;7.63;;;3.00;;
58898;SDS011;44680;48.342;7.856;2022-10-16T15:41:43;6.80;;;2.90;;
58898;SDS011;44680;48.342;7.856;2022-10-16T15:44:10;11.85;;;2.90;;
58898;SDS011;44680;48.342;7.856;2022-10-16T15:46:35;9.57;;;3.42;;
58898;SDS011;44680;48.342;7.856;2022-10-16T15:49:02;7.72;;;3.22;;
58898;SDS011;44680;48.342;7.856;2022-10-16T15:51:28;10.40;;;3.40;;
58898;SDS011;44680;48.342;7.856;2022-10-16T15:53:55;14.35;;;3.90;;
58898;SDS011;44680;48.342;7.856;2022-10-16T15:56:21;8.77;;;3.80;;
58898;SDS011;44680;48.342;7.856;2022-10-16T15:58:47;8.95;;;3.58;;
58898;SDS011;44680;48.342;7.856;2022-10-16T16:01:13;9.50;;;3.25;;
58898;SDS011;44680;48.342;7.856;2022-10-16T16:03:38;8.77;;;3.40;;
58898;SDS011;44680;48.342;7.856;2022-10-16T16:06:08;9.82;;;3.72;;
58898;SDS011;44680;48.342;7.856;2022-10-16T16:08:35;9.00;;;3.65;;
58898;SDS011;44680;48.342;7.856;2022-10-16T16:11:04;9.50;;;3.50;;
58898;SDS011;44680;48.342;7.856;2022-10-16T16:13:34;13.20;;;3.50;;
58898;SDS011;44680;48.342;7.856;2022-10-16T16:16:02;10.02;;;3.08;;
58898;SDS011;44680;48.342;7.856;2022-10-16T16:18:30;12.80;;;3.42;;
58898;SDS011;44680;48.342;7.856;2022-10-16T16:20:55;11.30;;;3.55;;
58898;SDS011;44680;48.342;7.856;2022-10-16T16:23:21;13.40;;;3.40;;
58898;SDS011;44680;48.342;7.856;2022-10-16T16:26:02;10.70;;;3.42;;
58898;SDS011;44680;48.342;7.856;2022-10-16T16:28:28;11.52;;;3.92;;
58898;SDS011;44680;48.342;7.856;2022-10-16T16:30:53;3.42;;;3.13;;
58898;SDS011;44680;48.342;7.856;2022-10-16T16:33:19;9.75;;;3.85;;
58898;SDS011;44680;48.342;7.856;2022-10-16T16:35:44;7.70;;;3.88;;
58898;SDS011;44680;48.342;7.856;2022-10-16T16:38:09;10.93;;;4.00;;
58898;SDS011;44680;48.342;7.856;2022-10-16T16:40:35;10.45;;;3.80;;